Time;durP1;ratioP1;P1;durP2;ratioP2;P2;SDS_P1;SDS_P2;PMS_P1;PMS_P2;Temp;Humidity;BMP_temperature;BMP_pressure;BME280_temperature;BME280_humidity;BME280_pressure;Samples;Min_cycle;Max_cycle;Signal;HPM_P1;HPM_P2
2023/09/16 00:00:33;;;;;;;5.88;2.88;;;;;;;14.94;100.00;101406.75;6178011;28;20054;-73
2023/09/16 00:03:36;;;;;;;7.53;3.35;;;;;;;14.89;100.00;101407.97;6197224;28;20116;-73
2023/09/16 00:06:37;;;;;;;6.22;3.55;;;;;;;14.89;100.00;101402.66;6178413;28;20465;-73
2023/09/16 00:09:40;;;;;;;5.55;3.33;;;;;;;14.82;100.00;101402.22;6177561;28;20054;-73
2023/09/16 00:12:41;;;;;;;5.78;3.13;;;;;;;14.85;100.00;101393.22;6178019;28;20055;-73
2023/09/16 00:15:48;;;;;;;5.70;3.28;;;;;;;14.89;100.00;101389.44;6177927;28;20047;-73
2023/09/16 00:18:51;;;;;;;9.35;3.75;;;;;;;14.85;100.00;101398.50;6177703;28;20066;-75
2023/09/16 00:21:52;;;;;;;5.38;3.40;;;;;;;14.84;100.00;101391.53;6177819;28;20050;-74
2023/09/16 00:24:54;;;;;;;8.18;3.42;;;;;;;14.84;100.00;101380.94;6188367;28;20386;-75
2023/09/16 00:27:55;;;;;;;4.35;2.60;;;;;;;14.87;100.00;101388.69;6177463;28;20582;-75
2023/09/16 00:30:57;;;;;;;6.05;3.38;;;;;;;14.87;100.00;101389.53;6177593;28;20051;-73
2023/09/16 00:34:00;;;;;;;5.68;2.92;;;;;;;14.93;100.00;101393.59;6177669;28;20050;-73
2023/09/16 00:37:01;;;;;;;5.28;2.97;;;;;;;14.89;100.00;101394.72;6177562;28;20055;-73
2023/09/16 00:40:05;;;;;;;5.68;3.00;;;;;;;14.81;100.00;101383.78;6177147;28;20058;-73
2023/09/16 00:43:07;;;;;;;4.95;3.00;;;;;;;14.74;100.00;101387.75;6177222;28;20050;-73
2023/09/16 00:46:08;;;;;;;9.82;3.13;;;;;;;14.69;100.00;101386.22;6177448;28;20451;-73
2023/09/16 00:49:11;;;;;;;4.07;2.65;;;;;;;14.68;100.00;101376.59;6177121;28;20077;-73
2023/09/16 00:52:12;;;;;;;5.85;3.05;;;;;;;14.64;100.00;101375.06;6177525;28;20053;-73
2023/09/16 00:55:15;;;;;;;6.65;3.72;;;;;;;14.64;100.00;101367.13;6177389;28;20046;-73
2023/09/16 00:58:18;;;;;;;4.28;2.70;;;;;;;14.63;100.00;101373.38;6177273;28;20058;-72
2023/09/16 01:01:19;;;;;;;4.90;3.15;;;;;;;14.64;100.00;101371.56;6177226;28;20054;-74
2023/09/16 01:04:22;;;;;;;5.07;3.22;;;;;;;14.58;100.00;101367.50;6177515;28;20050;-72
2023/09/16 01:07:24;;;;;;;5.03;2.90;;;;;;;14.46;100.00;101366.41;6177222;28;20051;-72
2023/09/16 01:10:26;;;;;;;5.75;3.45;;;;;;;14.39;100.00;101361.56;6211020;23;20053;-73
2023/09/16 01:13:27;;;;;;;5.45;3.00;;;;;;;14.34;100.00;101363.63;6201105;28;20054;-73
2023/09/16 01:16:37;;;;;;;6.53;3.40;;;;;;;14.30;100.00;101370.88;6224492;28;20100;-72
2023/09/16 01:19:48;;;;;;;5.57;3.45;;;;;;;14.26;100.00;101363.22;6215736;28;20465;-73
2023/09/16 01:22:50;;;;;;;6.55;3.67;;;;;;;14.21;100.00;101371.44;6225751;28;20046;-73
2023/09/16 01:25:53;;;;;;;5.40;3.40;;;;;;;14.16;100.00;101366.41;6225396;28;20053;-73
2023/09/16 01:28:55;;;;;;;7.15;3.65;;;;;;;14.17;100.00;101367.25;6225301;28;20056;-73
2023/09/16 01:32:01;;;;;;;5.90;3.45;;;;;;;14.14;100.00;101356.88;6225723;28;20453;-72
2023/09/16 01:35:06;;;;;;;6.40;3.08;;;;;;;14.12;100.00;101358.75;6225401;28;20057;-73
2023/09/16 01:38:09;;;;;;;5.68;3.03;;;;;;;14.08;100.00;101359.88;6246726;28;20095;-73
2023/09/16 01:41:13;;;;;;;7.90;3.00;;;;;;;14.08;100.00;101350.16;6249464;28;20041;-73
2023/09/16 01:44:14;;;;;;;6.10;2.85;;;;;;;14.13;100.00;101349.91;6249694;28;20124;-73
2023/09/16 01:47:16;;;;;;;5.90;3.20;;;;;;;14.08;100.00;101355.47;6249722;28;20049;-72
2023/09/16 01:50:17;;;;;;;5.43;2.92;;;;;;;14.07;100.00;101356.38;6249139;28;20357;-73
2023/09/16 01:53:19;;;;;;;5.55;3.28;;;;;;;14.04;100.00;101351.28;6251022;28;20042;-73
2023/09/16 01:56:22;;;;;;;6.32;3.30;;;;;;;14.02;100.00;101357.59;6254222;28;20061;-73
2023/09/16 01:59:23;;;;;;;5.45;2.95;;;;;;;14.01;100.00;101347.97;6253705;28;20057;-73
2023/09/16 02:02:24;;;;;;;7.25;3.17;;;;;;;14.03;100.00;101356.63;6253939;28;20433;-73
2023/09/16 02:05:26;;;;;;;4.25;3.08;;;;;;;14.02;100.00;101349.66;6253691;28;20053;-73
2023/09/16 02:08:28;;;;;;;5.78;3.65;;;;;;;14.00;100.00;101349.75;6253746;28;20060;-73
2023/09/16 02:11:30;;;;;;;4.18;2.78;;;;;;;13.99;100.00;101350.72;6253440;28;20334;-73
2023/09/16 02:14:37;;;;;;;4.53;2.67;;;;;;;14.02;100.00;101352.31;6252829;28;20050;-73
2023/09/16 02:17:40;;;;;;;5.82;2.78;;;;;;;14.03;100.00;101338.13;6253415;28;20057;-73
2023/09/16 02:20:41;;;;;;;4.18;2.92;;;;;;;14.04;100.00;101346.00;6253267;28;20050;-73
2023/09/16 02:23:42;;;;;;;5.60;2.88;;;;;;;14.09;100.00;101343.94;6253409;28;20060;-73
2023/09/16 02:26:45;;;;;;;4.95;2.72;;;;;;;14.11;100.00;101336.75;6253500;28;20065;-73
2023/09/16 02:29:49;;;;;;;5.13;2.78;;;;;;;14.13;100.00;101334.03;6252862;28;20057;-73
2023/09/16 02:32:51;;;;;;;3.65;2.42;;;;;;;14.09;100.00;101340.44;6252980;28;20463;-73
2023/09/16 02:35:52;;;;;;;3.50;2.20;;;;;;;14.10;100.00;101340.34;6253014;28;20441;-72
2023/09/16 02:38:53;;;;;;;4.20;2.88;;;;;;;14.07;100.00;101339.66;6252993;28;20058;-73
2023/09/16 02:41:56;;;;;;;5.30;2.83;;;;;;;14.08;100.00;101336.06;6252817;28;20049;-73
2023/09/16 02:44:57;;;;;;;6.65;3.20;;;;;;;14.10;100.00;101334.22;6253113;28;20057;-73
2023/09/16 02:47:59;;;;;;;4.50;3.25;;;;;;;14.11;100.00;101334.13;6252827;28;20060;-72
2023/09/16 02:51:01;;;;;;;6.57;3.13;;;;;;;14.12;100.00;101340.25;6252739;28;20052;-73
2023/09/16 02:54:05;;;;;;;6.70;3.40;;;;;;;14.14;100.00;101341.03;6252815;28;20049;-73
2023/09/16 02:57:08;;;;;;;7.40;3.55;;;;;;;14.16;100.00;101329.41;6252545;28;20187;-73
2023/09/16 03:00:10;;;;;;;9.32;3.72;;;;;;;14.16;100.00;101334.69;6252274;28;20050;-73
2023/09/16 03:03:12;;;;;;;6.32;2.38;;;;;;;14.08;100.00;101326.38;6252178;28;20045;-73
2023/09/16 03:06:13;;;;;;;8.32;3.17;;;;;;;14.06;100.00;101316.84;6252464;28;20049;-73
2023/09/16 03:09:17;;;;;;;5.18;3.17;;;;;;;14.04;100.00;101324.00;6251794;28;20049;-73
2023/09/16 03:12:19;;;;;;;3.72;2.50;;;;;;;14.06;100.00;101319.47;6252231;28;20512;-74
2023/09/16 03:15:21;;;;;;;4.88;2.80;;;;;;;14.07;100.00;101324.66;6252520;28;20053;-73
2023/09/16 03:18:22;;;;;;;7.93;3.00;;;;;;;14.04;100.00;101316.94;6252175;28;20060;-74
2023/09/16 03:21:25;;;;;;;5.05;2.75;;;;;;;13.96;100.00;101317.38;6252089;28;20052;-73
2023/09/16 03:24:27;;;;;;;4.68;2.83;;;;;;;13.96;100.00;101316.53;6252277;28;20188;-72
2023/09/16 03:27:29;;;;;;;8.27;3.10;;;;;;;13.89;100.00;101312.53;6251902;28;20330;-73
2023/09/16 03:30:31;;;;;;;6.20;3.40;;;;;;;13.87;100.00;101306.50;6251266;28;20049;-73
2023/09/16 03:33:32;;;;;;;4.70;3.20;;;;;;;13.89;100.00;101312.53;6248300;28;20041;-72
2023/09/16 03:36:34;;;;;;;7.75;3.08;;;;;;;13.94;100.00;101310.47;6233963;28;20453;-73
2023/09/16 03:39:35;;;;;;;7.28;2.60;;;;;;;13.92;100.00;101307.06;6250983;28;20394;-73
2023/09/16 03:42:38;;;;;;;6.90;3.38;;;;;;;13.90;100.00;101314.25;6248184;28;20042;-74
2023/09/16 03:45:39;;;;;;;5.05;3.15;;;;;;;13.91;100.00;101303.56;6246239;28;20053;-74
2023/09/16 03:48:41;;;;;;;6.28;2.67;;;;;;;13.92;100.00;101304.44;6251278;28;20560;-73
2023/09/16 03:51:42;;;;;;;6.90;3.47;;;;;;;13.83;100.00;101297.03;6251138;28;20349;-73
2023/09/16 03:54:44;;;;;;;5.53;3.45;;;;;;;13.75;100.00;101297.47;6251183;28;20053;-73
2023/09/16 03:57:46;;;;;;;3.50;2.40;;;;;;;13.74;100.00;101293.13;6251502;28;20050;-75
2023/09/16 04:00:48;;;;;;;7.10;3.13;;;;;;;13.70;100.00;101292.44;6239835;28;20053;-74
2023/09/16 04:03:50;;;;;;;5.90;3.17;;;;;;;13.70;100.00;101287.16;6234941;28;20056;-74
2023/09/16 04:06:51;;;;;;;4.88;2.85;;;;;;;13.76;100.00;101288.59;6239106;28;20048;-75
2023/09/16 04:09:52;;;;;;;6.35;3.47;;;;;;;13.82;100.00;101293.53;6237304;28;20046;-74
2023/09/16 04:12:55;;;;;;;5.90;3.15;;;;;;;13.89;100.00;101286.94;6242817;28;20049;-75
2023/09/16 04:15:57;;;;;;;4.53;2.75;;;;;;;13.94;100.00;101289.31;6237558;28;20041;-73
2023/09/16 04:18:58;;;;;;;5.75;3.53;;;;;;;13.92;100.00;101285.94;6242459;28;20052;-73
2023/09/16 04:22:00;;;;;;;3.70;2.80;;;;;;;13.87;100.00;101288.84;6242650;28;20349;-73
2023/09/16 04:25:01;;;;;;;4.72;2.95;;;;;;;13.95;100.00;101291.03;6240627;28;20049;-74
2023/09/16 04:28:04;;;;;;;4.68;2.92;;;;;;;13.99;100.00;101291.69;6239022;28;20064;-74
2023/09/16 04:31:08;;;;;;;6.53;2.90;;;;;;;14.01;100.00;101289.81;6239507;28;20132;-74
2023/09/16 04:34:09;;;;;;;10.00;3.28;;;;;;;13.98;100.00;101290.84;6239803;28;20038;-74
2023/09/16 04:37:11;;;;;;;7.82;3.10;;;;;;;13.99;100.00;101286.41;6238624;28;20057;-74
2023/09/16 04:40:13;;;;;;;5.68;3.65;;;;;;;14.02;100.00;101280.94;6237521;28;20050;-72
2023/09/16 04:43:15;;;;;;;4.35;2.63;;;;;;;14.02;100.00;101287.09;6240525;28;20041;-72
2023/09/16 04:46:18;;;;;;;4.93;2.67;;;;;;;14.10;100.00;101287.47;6239641;28;20054;-74
2023/09/16 04:49:19;;;;;;;5.43;2.78;;;;;;;14.15;100.00;101282.78;6237705;28;20350;-74
2023/09/16 04:52:21;;;;;;;6.22;3.22;;;;;;;14.23;100.00;101284.97;6239290;28;20042;-73
2023/09/16 04:55:23;;;;;;;3.35;2.30;;;;;;;14.21;100.00;101284.19;6237236;28;20045;-73
2023/09/16 04:58:26;;;;;;;4.10;2.85;;;;;;;14.21;100.00;101287.69;6238753;28;20046;-74
2023/09/16 05:01:29;;;;;;;6.63;3.33;;;;;;;14.24;100.00;101276.09;6236290;28;20058;-74
2023/09/16 05:04:30;;;;;;;3.75;2.58;;;;;;;14.24;100.00;101281.38;6241347;28;20350;-74
2023/09/16 05:07:32;;;;;;;5.70;3.15;;;;;;;14.27;100.00;101278.56;6240984;28;20349;-72
2023/09/16 05:10:33;;;;;;;5.25;2.85;;;;;;;14.31;100.00;101282.72;6236762;28;20042;-74
2023/09/16 05:13:36;;;;;;;5.35;2.47;;;;;;;14.33;100.00;101280.81;6238421;28;20048;-73
2023/09/16 05:16:37;;;;;;;7.45;3.97;;;;;;;14.35;100.00;101276.31;6237848;28;20085;-73
2023/09/16 05:19:39;;;;;;;5.32;3.33;;;;;;;14.35;100.00;101281.59;6237168;28;20434;-75
2023/09/16 05:22:40;;;;;;;7.88;3.13;;;;;;;14.37;100.00;101286.78;6236821;28;20057;-74
2023/09/16 05:25:45;;;;;;;5.38;3.17;;;;;;;14.38;100.00;101286.69;6233407;28;20450;-74
2023/09/16 05:28:48;;;;;;;4.47;2.78;;;;;;;14.40;100.00;101278.66;6229115;28;20056;-73
2023/09/16 05:31:50;;;;;;;6.10;3.00;;;;;;;14.40;100.00;101281.31;6231129;28;20045;-74
2023/09/16 05:34:51;;;;;;;5.95;3.35;;;;;;;14.43;100.00;101281.94;6254600;28;20049;-74
2023/09/16 05:37:53;;;;;;;6.07;3.25;;;;;;;14.51;100.00;101280.69;6245348;28;20049;-73
2023/09/16 05:40:54;;;;;;;6.07;3.10;;;;;;;14.52;100.00;101285.88;6240811;28;20045;-74
2023/09/16 05:43:57;;;;;;;5.55;3.08;;;;;;;14.52;100.00;101285.88;6242255;28;20437;-73
2023/09/16 05:46:59;;;;;;;4.25;2.90;;;;;;;14.59;100.00;101283.72;6241289;28;20143;-76
2023/09/16 05:50:00;;;;;;;2.95;2.38;;;;;;;14.63;100.00;101290.50;6241285;28;20353;-73
2023/09/16 05:53:03;;;;;;;6.25;3.08;;;;;;;14.64;100.00;101292.22;6247226;28;20045;-76
2023/09/16 05:56:06;;;;;;;5.43;2.75;;;;;;;14.70;100.00;101294.47;6247356;28;20050;-74
2023/09/16 05:59:09;;;;;;;5.38;3.22;;;;;;;14.77;100.00;101285.22;6239874;28;20065;-74
2023/09/16 06:02:11;;;;;;;6.35;3.35;;;;;;;14.84;100.00;101288.31;6241104;28;20041;-76
2023/09/16 06:05:13;;;;;;;4.88;3.05;;;;;;;14.83;100.00;101284.81;6232092;28;20049;-74
2023/09/16 06:08:14;;;;;;;5.88;3.05;;;;;;;14.82;100.00;101284.94;6229055;28;20242;-74
2023/09/16 06:11:16;;;;;;;6.38;3.40;;;;;;;14.82;100.00;101298.16;6228977;28;20050;-74
2023/09/16 06:14:19;;;;;;;6.65;2.97;;;;;;;14.87;100.00;101288.97;6229018;28;20054;-74
2023/09/16 06:17:22;;;;;;;6.40;3.00;;;;;;;14.87;100.00;101286.34;6238538;28;20049;-75
2023/09/16 06:20:24;;;;;;;5.82;3.00;;;;;;;14.95;100.00;101283.22;6253193;28;20088;-74
2023/09/16 06:23:25;;;;;;;6.65;2.97;;;;;;;14.95;100.00;101288.50;6253190;28;20038;-74
2023/09/16 06:26:27;;;;;;;6.53;3.55;;;;;;;14.90;100.00;101286.16;6253352;28;20135;-74
2023/09/16 06:29:30;;;;;;;4.97;3.25;;;;;;;14.91;100.00;101285.19;6253206;28;20053;-74
2023/09/16 06:32:31;;;;;;;5.45;3.22;;;;;;;14.94;100.00;101287.66;6253242;28;20041;-74
2023/09/16 06:35:32;;;;;;;6.60;3.25;;;;;;;14.95;100.00;101289.34;6253166;28;20049;-74
2023/09/16 06:38:34;;;;;;;5.90;3.17;;;;;;;14.94;100.00;101289.44;6252414;28;20058;-74
2023/09/16 06:41:36;;;;;;;4.80;3.13;;;;;;;14.98;100.00;101283.84;6253066;28;20060;-74
2023/09/16 06:44:38;;;;;;;5.80;3.65;;;;;;;15.08;100.00;101288.56;6251548;28;20048;-74
2023/09/16 06:47:40;;;;;;;6.68;3.28;;;;;;;15.13;100.00;101281.19;6252945;28;20049;-74
2023/09/16 06:50:41;;;;;;;4.80;3.25;;;;;;;15.08;100.00;101281.50;6252926;28;20045;-74
2023/09/16 06:53:43;;;;;;;5.13;3.05;;;;;;;15.19;100.00;101286.09;6252584;28;20438;-74
2023/09/16 06:56:44;;;;;;;6.72;3.35;;;;;;;15.26;100.00;101289.19;6252820;28;20136;-74
2023/09/16 06:59:48;;;;;;;7.18;3.70;;;;;;;15.26;100.00;101290.06;6252283;28;20049;-75
2023/09/16 07:02:49;;;;;;;6.68;3.15;;;;;;;15.33;100.00;101294.00;6252383;28;20049;-74
2023/09/16 07:05:51;;;;;;;4.88;3.10;;;;;;;15.35;100.00;101297.41;6252641;28;20049;-74
2023/09/16 07:08:52;;;;;;;7.72;3.58;;;;;;;15.32;100.00;101296.75;6252075;28;20053;-74
2023/09/16 07:11:53;;;;;;;5.38;2.92;;;;;;;15.34;100.00;101301.00;6253641;23;20331;-70
2023/09/16 07:14:56;;;;;;;5.47;2.90;;;;;;;15.42;100.00;101298.69;6227480;28;20057;-70
2023/09/16 07:17:58;;;;;;;4.88;3.08;;;;;;;15.53;100.00;101298.00;6226853;28;20054;-70
2023/09/16 07:20:59;;;;;;;5.40;3.00;;;;;;;15.49;100.00;101291.22;6225265;28;20431;-70
2023/09/16 07:24:01;;;;;;;7.32;3.83;;;;;;;15.55;100.00;101288.16;6227267;28;20054;-70
2023/09/16 07:27:03;;;;;;;6.00;2.90;;;;;;;15.60;100.00;101291.34;6227385;28;20061;-70
2023/09/16 07:30:07;;;;;;;5.18;2.95;;;;;;;15.65;100.00;101294.56;6227086;28;20077;-71
2023/09/16 07:33:09;;;;;;;7.60;3.03;;;;;;;15.72;100.00;101301.19;6227165;28;20050;-70
2023/09/16 07:36:10;;;;;;;6.28;3.20;;;;;;;15.74;100.00;101290.47;6227420;28;20053;-70
2023/09/16 07:39:12;;;;;;;5.35;2.92;;;;;;;15.81;100.00;101297.09;6226873;28;20065;-70
2023/09/16 07:42:15;;;;;;;7.10;3.20;;;;;;;15.82;100.00;101297.94;6227006;28;20050;-70
2023/09/16 07:45:17;;;;;;;5.38;2.75;;;;;;;15.80;100.00;101292.72;6227027;28;20049;-71
2023/09/16 07:48:19;;;;;;;5.20;3.00;;;;;;;15.89;100.00;101285.94;6226604;28;20454;-70
2023/09/16 07:51:20;;;;;;;3.88;2.80;;;;;;;15.94;100.00;101289.13;6225948;28;20052;-70
2023/09/16 07:54:22;;;;;;;4.72;2.38;;;;;;;15.98;100.00;101294.13;6226607;28;20046;-70
2023/09/16 07:57:23;;;;;;;5.63;2.72;;;;;;;16.03;100.00;101300.91;6226664;28;20328;-70
2023/09/16 08:00:26;;;;;;;6.38;3.28;;;;;;;16.06;100.00;101303.38;6217839;28;20042;-70
2023/09/16 08:03:27;;;;;;;11.00;3.70;;;;;;;16.13;100.00;101294.06;6226526;28;20046;-70
2023/09/16 08:06:29;;;;;;;5.60;3.42;;;;;;;16.18;100.00;101294.59;6226394;28;20374;-69
2023/09/16 08:09:30;;;;;;;5.25;3.28;;;;;;;16.22;100.00;101296.09;6226432;28;20054;-70
2023/09/16 08:12:31;;;;;;;8.43;3.22;;;;;;;16.26;100.00;101302.00;6226153;28;20446;-70
2023/09/16 08:15:34;;;;;;;7.13;3.63;;;;;;;16.23;100.00;101295.97;6226474;28;20053;-70
2023/09/16 08:18:37;;;;;;;4.00;2.58;;;;;;;16.38;100.00;101294.06;6225335;28;20045;-70
2023/09/16 08:21:38;;;;;;;5.88;3.60;;;;;;;16.47;100.00;101292.59;6226318;28;20050;-70
2023/09/16 08:24:39;;;;;;;6.05;3.00;;;;;;;16.58;100.00;101300.66;6226067;28;20362;-69
2023/09/16 08:27:41;;;;;;;7.90;3.03;;;;;;;16.70;100.00;101298.94;6226401;28;20050;-69
2023/09/16 08:30:43;;;;;;;5.45;2.85;;;;;;;16.79;100.00;101294.81;6225936;28;20053;-69
2023/09/16 08:33:45;;;;;;;4.78;2.90;;;;;;;16.86;100.00;101301.41;6225950;28;20056;-69
2023/09/16 08:36:46;;;;;;;5.55;3.10;;;;;;;16.96;100.00;101289.19;6226332;28;20050;-69
2023/09/16 08:39:48;;;;;;;6.20;3.22;;;;;;;17.10;100.00;101291.69;6225576;28;20050;-69
2023/09/16 08:43:02;;;;;;;4.90;3.10;;;;;;;17.17;100.00;101294.75;6226064;28;20056;-69
2023/09/16 08:46:09;;;;;;;5.63;3.63;;;;;;;17.25;100.00;101285.25;6226272;28;20050;-69
2023/09/16 08:49:13;;;;;;;4.75;3.22;;;;;;;17.27;100.00;101293.13;6225981;28;20050;-69
2023/09/16 08:52:18;;;;;;;4.65;2.30;;;;;;;17.30;100.00;101287.56;6225864;28;20052;-69
2023/09/16 08:55:20;;;;;;;4.60;2.40;;;;;;;17.37;100.00;101288.84;6225890;28;20370;-70
2023/09/16 08:58:22;;;;;;;6.15;2.53;;;;;;;17.41;100.00;101284.16;6220794;28;20046;-71
2023/09/16 09:01:26;;;;;;;4.60;2.72;;;;;;;17.45;100.00;101286.47;6223041;28;20042;-70
2023/09/16 09:04:28;;;;;;;3.83;2.40;;;;;;;17.53;100.00;101282.38;6230611;28;20046;-70
2023/09/16 09:07:32;;;;;;;4.82;2.70;;;;;;;17.58;100.00;101282.91;6230536;28;20049;-68
2023/09/16 09:10:33;;;;;;;8.43;4.55;;;;;;;17.63;100.00;101288.72;6228602;28;20046;-69
2023/09/16 09:13:35;;;;;;;6.07;3.30;;;;;;;17.70;100.00;101280.16;6230418;28;20042;-69
2023/09/16 09:16:41;;;;;;;4.07;2.85;;;;;;;17.70;100.00;101280.16;6228937;28;20045;-70
2023/09/16 09:19:44;;;;;;;4.07;2.30;;;;;;;17.83;100.00;101292.59;6229109;28;20046;-71
2023/09/16 09:22:48;;;;;;;4.03;2.70;;;;;;;17.98;100.00;101291.41;6226546;28;20049;-70
2023/09/16 09:25:49;;;;;;;7.35;2.42;;;;;;;18.06;100.00;101283.69;6230045;28;20062;-70
2023/09/16 09:28:51;;;;;;;3.78;2.35;;;;;;;18.11;100.00;101289.50;6230029;28;20057;-72
2023/09/16 09:31:54;;;;;;;5.05;2.58;;;;;;;18.15;100.00;101290.13;6230003;28;20080;-71
2023/09/16 09:34:56;;;;;;;4.90;2.90;;;;;;;18.18;100.00;101285.44;6229746;28;20050;-70
2023/09/16 09:37:58;;;;;;;3.55;2.13;;;;;;;18.17;100.00;101278.44;6229980;28;20050;-70
2023/09/16 09:41:01;;;;;;;3.47;2.30;;;;;;;18.27;100.00;101278.56;6229937;28;20053;-71
2023/09/16 09:44:03;;;;;;;5.13;2.20;;;;;;;18.38;100.00;101281.22;6229879;28;20446;-70
2023/09/16 09:47:06;;;;;;;4.35;2.25;;;;;;;18.55;100.00;101282.59;6230049;28;20054;-72
2023/09/16 09:50:13;;;;;;;3.25;2.30;;;;;;;18.69;100.00;101277.03;6229526;28;20320;-71
2023/09/16 09:53:15;;;;;;;8.25;2.10;;;;;;;18.82;100.00;101281.41;6229768;28;20042;-71
2023/09/16 09:56:17;;;;;;;3.47;1.83;;;;;;;18.95;100.00;101274.13;6229657;28;20050;-71
2023/09/16 09:59:19;;;;;;;3.45;2.53;;;;;;;18.97;100.00;101273.03;6229359;28;20053;-71
2023/09/16 10:02:25;;;;;;;3.50;2.13;;;;;;;19.08;100.00;101271.34;6222141;28;20549;-72
2023/09/16 10:05:27;;;;;;;3.08;2.10;;;;;;;19.25;100.00;101262.78;6222792;28;20054;-71
2023/09/16 10:08:29;;;;;;;4.20;2.83;;;;;;;19.32;100.00;101261.34;6225754;28;20045;-71
2023/09/16 10:11:32;;;;;;;3.10;2.22;;;;;;;19.36;100.00;101254.78;6224197;28;20054;-71
2023/09/16 10:14:33;;;;;;;5.03;2.13;;;;;;;19.63;100.00;101256.19;6227372;28;20438;-71
2023/09/16 10:17:37;;;;;;;6.50;2.45;;;;;;;19.76;100.00;101260.34;6229014;28;20054;-71
2023/09/16 10:20:43;;;;;;;2.55;1.75;;;;;;;19.82;100.00;101256.31;6227422;28;20350;-72
2023/09/16 10:23:46;;;;;;;6.63;2.15;;;;;;;19.84;100.00;101265.03;6228483;28;20057;-71
2023/09/16 10:26:49;;;;;;;3.05;2.25;;;;;;;19.98;100.00;101248.72;6228853;28;20054;-72
2023/09/16 10:29:52;;;;;;;3.90;2.15;;;;;;;20.15;100.00;101249.09;6227765;28;20057;-72
2023/09/16 10:32:54;;;;;;;2.53;1.85;;;;;;;20.13;100.00;101245.72;6220666;28;20057;-72
2023/09/16 10:35:56;;;;;;;4.20;1.92;;;;;;;20.25;100.00;101244.63;6228513;28;20350;-72
2023/09/16 10:39:00;;;;;;;6.78;2.65;;;;;;;20.22;100.00;101237.75;6228406;28;20133;-71
2023/09/16 10:42:03;;;;;;;3.03;2.10;;;;;;;20.28;100.00;101245.22;6228324;28;20350;-70
2023/09/16 10:45:06;;;;;;;2.47;1.70;;;;;;;20.38;100.00;101247.09;6226129;28;20127;-77
2023/09/16 10:48:09;;;;;;;3.05;2.03;;;;;;;20.52;100.00;101236.09;6224702;28;20054;-69
2023/09/16 10:51:19;;;;;;;6.35;1.85;;;;;;;20.63;100.00;101240.50;6226411;28;20056;-71
2023/09/16 10:54:27;;;;;;;3.65;1.80;;;;;;;20.66;100.00;101237.56;6226371;28;20328;-69
2023/09/16 10:57:35;;;;;;;3.87;1.60;;;;;;;20.81;100.00;101236.22;6227100;28;20362;-70
2023/09/16 11:00:39;;;;;;;3.95;2.10;;;;;;;21.03;100.00;101240.50;6226871;28;20359;-69
2023/09/16 11:03:50;;;;;;;5.60;2.70;;;;;;;21.02;100.00;101241.44;6227249;28;20058;-69
2023/09/16 11:06:51;;;;;;;2.78;1.55;;;;;;;21.11;100.00;101240.63;6227915;28;20076;-69
2023/09/16 11:09:54;;;;;;;2.35;1.75;;;;;;;21.31;100.00;101236.19;6227338;28;20045;-69
2023/09/16 11:12:57;;;;;;;2.50;1.70;;;;;;;21.37;100.00;101238.31;6227840;28;20453;-69
2023/09/16 11:15:59;;;;;;;3.55;1.95;;;;;;;21.45;100.00;101237.63;6227297;28;20077;-69
2023/09/16 11:19:08;;;;;;;2.83;1.67;;;;;;;21.59;100.00;101231.00;6227271;28;20054;-70
2023/09/16 11:22:10;;;;;;;3.03;2.08;;;;;;;21.77;100.00;101234.66;6227251;28;20050;-70
2023/09/16 11:25:12;;;;;;;2.17;1.50;;;;;;;21.89;100.00;101236.19;6227355;28;20049;-70
2023/09/16 11:28:14;;;;;;;3.05;1.55;;;;;;;21.99;100.00;101230.81;6227120;28;20046;-70
2023/09/16 11:31:16;;;;;;;1.40;1.10;;;;;;;22.23;100.00;101230.34;6227433;28;20054;-70
2023/09/16 11:34:21;;;;;;;2.20;1.55;;;;;;;22.52;100.00;101220.34;6227050;28;20103;-70
2023/09/16 11:37:24;;;;;;;2.45;1.35;;;;;;;22.66;100.00;101221.69;6227372;28;20076;-70
2023/09/16 11:40:26;;;;;;;3.28;1.38;;;;;;;22.80;100.00;101233.78;6226880;28;20093;-70
2023/09/16 11:43:28;;;;;;;2.22;1.33;;;;;;;22.92;100.00;101227.25;6227033;28;20053;-70
2023/09/16 11:46:30;;;;;;;2.05;1.48;;;;;;;23.15;100.00;101222.28;6227175;28;20056;-71
2023/09/16 11:49:34;;;;;;;1.35;1.10;;;;;;;23.44;100.00;101224.78;6226772;28;20065;-71
2023/09/16 11:52:38;;;;;;;2.50;1.50;;;;;;;23.76;100.00;101223.38;6226972;28;20446;-71
2023/09/16 11:55:39;;;;;;;1.58;1.10;;;;;;;23.92;100.00;101217.28;6226853;28;20053;-71
2023/09/16 11:58:42;;;;;;;3.67;1.52;;;;;;;24.10;100.00;101210.03;6226588;28;20373;-72
2023/09/16 12:01:44;;;;;;;1.45;1.20;;;;;;;24.26;100.00;101209.28;6227249;28;20054;-72
2023/09/16 12:04:47;;;;;;;2.80;1.58;;;;;;;24.43;100.00;101211.06;6226746;28;20438;-71
2023/09/16 12:07:48;;;;;;;2.30;1.50;;;;;;;24.59;100.00;101210.31;6226657;28;20049;-71
2023/09/16 12:10:51;;;;;;;1.63;1.30;;;;;;;24.80;100.00;101208.03;6226370;28;20050;-71
2023/09/16 12:13:54;;;;;;;2.40;1.67;;;;;;;24.91;100.00;101200.66;6226456;28;20051;-70
2023/09/16 12:16:56;;;;;;;1.95;1.35;;;;;;;25.09;100.00;101205.94;6226576;28;20050;-71
2023/09/16 12:19:59;;;;;;;1.30;1.13;;;;;;;25.21;100.00;101202.78;6226251;28;20049;-69
2023/09/16 12:23:00;;;;;;;1.83;1.30;;;;;;;25.37;100.00;101199.25;6226181;28;20054;-70
2023/09/16 12:26:02;;;;;;;2.45;1.50;;;;;;;25.37;100.00;101196.56;6226266;28;20050;-69
2023/09/16 12:29:05;;;;;;;2.45;1.27;;;;;;;25.43;100.00;101197.72;6225836;28;20050;-70
2023/09/16 12:32:10;;;;;;;1.08;0.98;;;;;;;25.60;100.00;101185.97;6226005;28;20366;-69
2023/09/16 12:35:12;;;;;;;4.18;1.48;;;;;;;25.76;100.00;101185.16;6226027;28;20046;-70
2023/09/16 12:38:15;;;;;;;1.52;1.30;;;;;;;25.89;100.00;101185.47;6225419;28;20045;-70
2023/09/16 12:41:17;;;;;;;2.05;1.52;;;;;;;26.05;100.00;101181.88;6225837;28;20061;-70
2023/09/16 12:44:19;;;;;;;3.22;1.50;;;;;;;26.09;100.00;101171.63;6226047;28;20046;-70
2023/09/16 12:47:21;;;;;;;2.35;1.50;;;;;;;26.13;100.00;101170.25;6225840;28;20049;-70
2023/09/16 12:50:25;;;;;;;2.65;1.20;;;;;;;26.17;100.00;101172.44;6225423;28;20358;-69
2023/09/16 12:53:26;;;;;;;1.40;1.20;;;;;;;26.34;100.00;101167.81;6225735;28;20046;-70
2023/09/16 12:56:30;;;;;;;1.25;1.13;;;;;;;26.38;100.00;101163.75;6225450;28;20068;-70
2023/09/16 12:59:31;;;;;;;2.85;1.80;;;;;;;26.52;86.14;101157.63;6225912;28;20050;-70
2023/09/16 13:02:35;;;;;;;5.70;1.40;;;;;;;26.63;67.65;101164.50;6225449;28;20050;-70
2023/09/16 13:05:38;;;;;;;1.90;1.27;;;;;;;26.79;64.51;101160.88;6225502;28;20450;-70
2023/09/16 13:08:40;;;;;;;1.92;1.50;;;;;;;26.98;63.40;101156.88;6225246;28;20060;-70
2023/09/16 13:11:41;;;;;;;2.33;1.83;;;;;;;27.02;62.82;101158.19;6225461;28;20061;-70
2023/09/16 13:14:43;;;;;;;2.38;1.50;;;;;;;27.08;62.73;101144.00;6225290;28;20073;-70
2023/09/16 13:17:46;;;;;;;4.40;1.63;;;;;;;27.16;62.61;101145.81;6225497;28;20053;-70
2023/09/16 13:20:53;;;;;;;2.05;1.40;;;;;;;27.25;63.48;101145.59;6225052;28;20434;-70
2023/09/16 13:23:55;;;;;;;3.92;1.58;;;;;;;27.39;63.87;101143.09;6225561;28;20058;-70
2023/09/16 13:26:57;;;;;;;2.20;1.70;;;;;;;27.55;62.96;101143.78;6225218;28;20061;-70
2023/09/16 13:30:01;;;;;;;2.55;1.88;;;;;;;27.56;64.20;101142.75;6225138;28;20133;-70
2023/09/16 13:33:05;;;;;;;4.30;1.67;;;;;;;27.43;61.77;101142.53;6225331;28;20054;-70
2023/09/16 13:36:07;;;;;;;3.38;1.67;;;;;;;27.47;61.18;101133.06;6225230;28;20046;-70
2023/09/16 13:39:10;;;;;;;3.13;1.98;;;;;;;27.59;61.55;101130.78;6224969;28;20462;-70
2023/09/16 13:42:11;;;;;;;3.42;1.77;;;;;;;27.53;60.88;101124.25;6225192;28;20050;-70
2023/09/16 13:45:13;;;;;;;1.45;1.30;;;;;;;27.56;61.45;101123.84;6225220;28;20045;-70
2023/09/16 13:48:17;;;;;;;3.35;1.67;;;;;;;27.76;58.56;101121.50;6226150;28;20050;-70
2023/09/16 13:51:21;;;;;;;1.67;1.45;;;;;;;27.59;57.38;101119.13;6229604;28;20053;-70
2023/09/16 13:54:23;;;;;;;2.90;2.00;;;;;;;27.49;58.58;101114.00;6229438;28;20093;-70
2023/09/16 13:57:25;;;;;;;2.53;1.50;;;;;;;27.60;58.85;101110.84;6229668;28;20085;-70